createdAt,value
2019-05-02T00:01:30.607Z,45.00
2019-05-02T00:04:00.241Z,45.80
2019-05-02T00:06:30.202Z,45.53
2019-05-02T00:09:03.925Z,46.93
2019-05-02T00:11:31.491Z,48.43
2019-05-02T00:14:01.393Z,45.33
2019-05-02T00:16:33.948Z,47.73
2019-05-02T00:19:03.505Z,44.80
2019-05-02T00:21:37.733Z,46.20
2019-05-02T00:24:05.007Z,44.80
2019-05-02T00:26:34.427Z,45.73
2019-05-02T00:29:04.021Z,48.93
2019-05-02T00:31:33.526Z,43.90
2019-05-02T00:34:02.978Z,42.03
2019-05-02T00:36:32.385Z,41.93
2019-05-02T00:39:01.829Z,43.50
2019-05-02T00:41:33.127Z,41.03
2019-05-02T00:44:06.102Z,42.27
2019-05-02T00:46:35.016Z,42.30
2019-05-02T00:49:04.828Z,46.03
2019-05-02T00:51:34.239Z,44.37
2019-05-02T00:54:03.752Z,40.00
2019-05-02T00:56:33.169Z,38.33
2019-05-02T00:59:07.608Z,39.43
2019-05-02T01:01:38.358Z,42.33
2019-05-02T01:04:23.403Z,42.33
2019-05-02T01:06:53.083Z,41.80
2019-05-02T01:09:22.696Z,42.03
2019-05-02T01:11:52.180Z,41.50
2019-05-02T01:14:21.642Z,41.50
2019-05-02T01:16:54.411Z,41.07
2019-05-02T01:19:22.347Z,40.70
2019-05-02T01:21:51.767Z,42.73
2019-05-02T01:24:21.365Z,43.33
2019-05-02T01:26:52.414Z,40.63
2019-05-02T01:29:31.462Z,41.60
2019-05-02T01:32:10.785Z,47.63
2019-05-02T01:34:56.201Z,43.30
2019-05-02T01:37:30.146Z,42.60
2019-05-02T01:39:59.599Z,43.03
2019-05-02T01:42:39.401Z,44.10
2019-05-02T01:45:00.160Z,46.50
2019-05-02T01:47:34.066Z,42.30
2019-05-02T01:50:00.786Z,46.07
2019-05-02T01:52:30.262Z,46.00
2019-05-02T01:54:59.826Z,44.10
2019-05-02T01:57:29.247Z,47.70
2019-05-02T01:59:58.720Z,48.73
2019-05-02T02:02:32.731Z,46.27
2019-05-02T02:04:59.235Z,47.20
2019-05-02T02:07:29.225Z,49.40
2019-05-02T02:09:58.642Z,48.93
2019-05-02T02:12:28.752Z,49.97
2019-05-02T02:14:58.168Z,49.53
2019-05-02T02:17:27.840Z,55.27
2019-05-02T02:20:09.793Z,56.83
2019-05-02T02:22:41.178Z,56.47
2019-05-02T02:25:32.238Z,57.73
2019-05-02T02:28:00.967Z,58.87
2019-05-02T02:30:30.511Z,60.00
2019-05-02T02:33:06.974Z,63.07
2019-05-02T02:35:31.213Z,60.47
2019-05-02T02:38:00.648Z,62.50
2019-05-02T02:40:33.815Z,62.03
2019-05-02T02:43:12.637Z,61.97
2019-05-02T02:46:00.435Z,60.47
2019-05-02T02:48:33.597Z,63.30
2019-05-02T02:51:03.715Z,67.70
2019-05-02T02:53:33.357Z,65.80
2019-05-02T02:56:07.960Z,71.00
2019-05-02T02:58:45.216Z,68.23
2019-05-02T03:01:08.787Z,74.33
2019-05-02T03:03:38.422Z,76.03
2019-05-02T03:06:08.499Z,69.73
2019-05-02T03:08:45.723Z,71.50
2019-05-02T03:11:11.231Z,75.00
2019-05-02T03:13:52.511Z,71.37
2019-05-02T03:16:21.695Z,72.80
2019-05-02T03:18:51.707Z,69.87
2019-05-02T03:21:22.580Z,74.60
2019-05-02T03:24:02.163Z,69.67
2019-05-02T03:26:26.321Z,71.20
2019-05-02T03:28:58.395Z,72.20
2019-05-02T03:31:30.392Z,71.73
2019-05-02T03:34:00.812Z,72.53
2019-05-02T03:36:35.804Z,78.70
2019-05-02T03:39:13.571Z,77.20
2019-05-02T03:41:32.119Z,76.90
2019-05-02T03:44:11.125Z,73.90
2019-05-02T03:46:33.399Z,75.20
2019-05-02T03:49:07.418Z,75.90
2019-05-02T03:51:34.255Z,75.67
2019-05-02T03:54:07.264Z,79.37
2019-05-02T03:56:34.814Z,80.57
2019-05-02T03:59:04.299Z,83.27
2019-05-02T04:01:34.591Z,86.37
2019-05-02T04:04:05.705Z,77.13
2019-05-02T04:06:35.236Z,77.43
2019-05-02T04:09:07.298Z,82.13
2019-05-02T04:11:39.057Z,77.40
2019-05-02T04:14:14.672Z,74.90
2019-05-02T04:16:40.098Z,70.60
2019-05-02T04:19:09.589Z,73.80
2019-05-02T04:21:39.142Z,68.17
2019-05-02T04:24:13.417Z,72.97
2019-05-02T04:26:52.590Z,69.97
2019-05-02T04:29:11.676Z,64.33
2019-05-02T04:31:41.182Z,72.80
2019-05-02T04:34:15.279Z,67.23
2019-05-02T04:36:46.007Z,74.20
2019-05-02T04:39:18.321Z,77.47
2019-05-02T04:41:44.260Z,73.80
2019-05-02T04:44:13.751Z,74.37
2019-05-02T04:46:43.208Z,71.10
2019-05-02T04:49:12.691Z,75.83
2019-05-02T04:51:50.982Z,74.77
2019-05-02T04:54:21.862Z,80.20
2019-05-02T04:56:52.334Z,77.17
2019-05-02T04:59:19.860Z,74.33
2019-05-02T05:01:54.658Z,77.93
2019-05-02T05:04:18.167Z,74.83
2019-05-02T05:06:55.820Z,84.63
2019-05-02T05:09:18.803Z,78.70
2019-05-02T05:11:48.296Z,79.10
2019-05-02T05:14:18.093Z,81.23
2019-05-02T05:16:51.721Z,86.60
2019-05-02T05:19:23.017Z,77.60
2019-05-02T05:21:50.068Z,82.93
2019-05-02T05:24:21.174Z,85.27
2019-05-02T05:26:52.595Z,85.00
2019-05-02T05:29:23.381Z,82.43
2019-05-02T05:31:55.081Z,77.00
2019-05-02T05:34:28.477Z,80.13
2019-05-02T05:36:55.193Z,82.80
2019-05-02T05:39:24.636Z,84.50
2019-05-02T05:41:54.045Z,84.57
2019-05-02T05:44:28.674Z,89.13
2019-05-02T05:46:54.892Z,84.17
2019-05-02T05:49:24.780Z,90.67
2019-05-02T05:51:59.518Z,89.80
2019-05-02T05:54:25.330Z,94.97
2019-05-02T05:56:57.342Z,92.93
2019-05-02T05:59:32.006Z,91.07
2019-05-02T06:02:00.542Z,92.70
2019-05-02T06:04:33.043Z,93.73
2019-05-02T06:07:03.162Z,93.90
2019-05-02T06:09:32.476Z,92.83
2019-05-02T06:12:01.924Z,90.10
2019-05-02T06:14:34.212Z,90.47
2019-05-02T06:17:03.827Z,91.17
2019-05-02T06:19:33.272Z,99.80
2019-05-02T06:22:03.160Z,96.57
2019-05-02T06:24:34.014Z,100.93
2019-05-02T06:27:03.605Z,99.30
2019-05-02T06:29:33.058Z,107.27
2019-05-02T06:32:03.084Z,106.80
2019-05-02T06:34:33.145Z,109.77
2019-05-02T06:37:02.652Z,101.27
2019-05-02T06:39:33.220Z,103.70
2019-05-02T06:42:02.721Z,103.07
2019-05-02T06:44:32.194Z,102.00
2019-05-02T06:47:04.408Z,105.03
2019-05-02T06:49:32.939Z,107.07
2019-05-02T06:52:02.407Z,110.20
2019-05-02T06:54:31.864Z,105.97
2019-05-02T06:57:01.321Z,104.13
2019-05-02T06:59:30.777Z,109.20
2019-05-02T07:02:00.231Z,99.50
2019-05-02T07:04:30.269Z,99.17
2019-05-02T07:07:00.188Z,97.40
2019-05-02T07:09:40.421Z,94.33
2019-05-02T07:12:02.628Z,96.17
2019-05-02T07:14:33.585Z,98.83
2019-05-02T07:17:05.856Z,95.37
2019-05-02T07:19:40.122Z,91.77
2019-05-02T07:22:09.920Z,86.57
2019-05-02T07:24:39.501Z,84.47
2019-05-02T07:27:09.108Z,84.40
2019-05-02T07:29:38.513Z,79.33
2019-05-02T07:32:08.033Z,78.07
2019-05-02T07:34:37.467Z,76.07
2019-05-02T07:37:08.400Z,82.23
2019-05-02T07:39:40.992Z,88.27
2019-05-02T07:42:09.535Z,89.90
2019-05-02T07:44:38.954Z,85.97
2019-05-02T07:47:09.069Z,82.07
2019-05-02T07:49:38.560Z,87.30
2019-05-02T07:52:08.088Z,84.23
2019-05-02T07:54:37.567Z,78.97
2019-05-02T07:57:07.033Z,83.70
2019-05-02T07:59:36.480Z,84.27
2019-05-02T08:02:06.089Z,74.80
2019-05-02T08:04:35.601Z,67.27
2019-05-02T08:07:05.268Z,70.10
2019-05-02T08:09:39.243Z,60.00
2019-05-02T08:12:06.926Z,60.40
2019-05-02T08:14:36.475Z,60.60
2019-05-02T08:17:10.609Z,62.60
2019-05-02T08:19:37.565Z,59.23
2019-05-02T08:22:13.374Z,63.13
2019-05-02T08:24:39.533Z,67.87
2019-05-02T08:27:13.586Z,72.30
2019-05-02T08:29:43.194Z,67.83
2019-05-02T08:32:13.608Z,68.53
2019-05-02T08:34:46.250Z,71.13
2019-05-02T08:37:14.470Z,64.03
2019-05-02T08:39:43.929Z,64.60
2019-05-02T08:42:13.954Z,66.37
2019-05-02T08:44:50.676Z,64.83
2019-05-02T08:47:19.172Z,65.97
2019-05-02T08:49:49.281Z,67.47
2019-05-02T08:52:18.525Z,68.63
2019-05-02T08:54:48.028Z,70.97
2019-05-02T08:57:17.536Z,68.00
2019-05-02T08:59:46.986Z,65.07
2019-05-02T09:02:16.448Z,62.40
2019-05-02T09:04:57.884Z,61.13
2019-05-02T09:07:17.267Z,62.13
2019-05-02T09:09:46.726Z,64.23
2019-05-02T09:12:16.369Z,60.93
2019-05-02T09:14:45.895Z,62.73
2019-05-02T09:17:16.635Z,61.43
2019-05-02T09:19:59.424Z,64.80
2019-05-02T09:22:17.456Z,70.77
2019-05-02T09:24:47.115Z,66.63
2019-05-02T09:27:16.625Z,68.63
2019-05-02T09:29:46.135Z,68.73
2019-05-02T09:32:17.214Z,73.10
2019-05-02T09:34:46.953Z,74.03
2019-05-02T09:37:16.379Z,76.27
2019-05-02T09:39:45.904Z,73.93
2019-05-02T09:42:18.850Z,75.80
2019-05-02T09:44:48.027Z,79.07
2019-05-02T09:47:27.222Z,75.97
2019-05-02T09:50:09.643Z,67.43
2019-05-02T09:52:41.678Z,65.10
2019-05-02T09:55:12.313Z,61.73
2019-05-02T09:57:42.742Z,64.97
2019-05-02T10:00:26.778Z,61.70
2019-05-02T10:02:53.620Z,59.60
2019-05-02T10:05:23.154Z,61.00
2019-05-02T10:07:52.786Z,59.27
2019-05-02T10:10:23.861Z,61.30
2019-05-02T10:12:54.919Z,62.43
2019-05-02T10:15:24.340Z,58.93
2019-05-02T10:18:07.227Z,60.27
2019-05-02T10:20:31.886Z,50.53
2019-05-02T10:22:57.017Z,54.20
2019-05-02T10:25:32.846Z,55.23
2019-05-02T10:27:57.810Z,61.13
2019-05-02T10:30:29.053Z,63.60
2019-05-02T10:32:58.575Z,62.43
2019-05-02T10:35:37.225Z,67.70
2019-05-02T10:38:02.517Z,57.03
2019-05-02T10:40:32.289Z,49.03
2019-05-02T10:43:02.880Z,47.90
2019-05-02T10:45:32.675Z,48.33
2019-05-02T10:48:02.370Z,47.70
2019-05-02T10:50:33.635Z,51.13
2019-05-02T10:53:11.020Z,55.77
2019-05-02T10:55:34.196Z,58.37
2019-05-02T10:58:03.650Z,51.30
2019-05-02T11:00:34.936Z,49.93
2019-05-02T11:03:15.597Z,48.57
2019-05-02T11:05:46.673Z,46.93
2019-05-02T11:08:16.138Z,46.10
2019-05-02T11:10:46.074Z,46.20
2019-05-02T11:13:17.202Z,46.30
2019-05-02T11:15:52.609Z,51.87
2019-05-02T11:18:39.399Z,49.13
2019-05-02T11:20:59.146Z,55.43
2019-05-02T11:23:26.070Z,53.67
2019-05-02T11:25:55.589Z,49.63
2019-05-02T11:28:25.051Z,50.40
2019-05-02T11:30:57.034Z,49.90
2019-05-02T11:33:25.632Z,47.17
2019-05-02T11:35:55.056Z,47.03
2019-05-02T11:38:34.623Z,46.70
2019-05-02T11:40:55.976Z,44.77
2019-05-02T11:43:25.401Z,46.37
2019-05-02T11:46:02.393Z,46.57
2019-05-02T11:48:26.045Z,43.37
2019-05-02T11:50:58.024Z,39.67
2019-05-02T11:53:29.397Z,37.70
2019-05-02T11:55:58.398Z,39.87
2019-05-02T11:58:29.187Z,42.50
2019-05-02T12:01:02.146Z,39.83
2019-05-02T12:03:42.299Z,36.93
2019-05-02T12:06:17.119Z,36.03
2019-05-02T12:08:45.022Z,29.93
2019-05-02T12:11:17.692Z,29.60
2019-05-02T12:13:47.228Z,25.93
2019-05-02T12:16:16.708Z,24.27
2019-05-02T12:18:46.229Z,23.27
2019-05-02T12:21:17.266Z,30.10
2019-05-02T12:23:46.708Z,28.80
2019-05-02T12:26:16.197Z,28.30
2019-05-02T12:28:47.369Z,28.73
2019-05-02T12:31:28.102Z,28.43
2019-05-02T12:33:59.321Z,24.93
2019-05-02T12:36:28.818Z,25.33
2019-05-02T12:38:58.268Z,24.00
2019-05-02T12:41:27.942Z,21.17
2019-05-02T12:43:57.458Z,23.27
2019-05-02T12:46:28.508Z,22.07
2019-05-02T12:48:58.038Z,21.30
2019-05-02T12:51:27.556Z,17.83
2019-05-02T12:53:57.019Z,16.83
2019-05-02T12:56:26.445Z,14.03
2019-05-02T12:58:55.895Z,15.43
2019-05-02T13:01:25.414Z,16.00
2019-05-02T13:04:08.333Z,14.40
2019-05-02T13:06:38.002Z,14.60
2019-05-02T13:09:12.575Z,14.53
2019-05-02T13:11:49.395Z,15.93
2019-05-02T13:14:22.489Z,12.70
2019-05-02T13:16:53.501Z,25.40
2019-05-02T13:19:36.813Z,19.13
2019-05-02T13:22:12.457Z,14.17
2019-05-02T13:24:47.086Z,13.37
2019-05-02T13:27:16.571Z,27.40
2019-05-02T13:29:46.819Z,18.57
2019-05-02T13:32:21.761Z,16.70
2019-05-02T13:34:57.125Z,16.10
2019-05-02T13:37:26.837Z,14.50
2019-05-02T13:39:58.662Z,13.67
2019-05-02T13:42:28.130Z,14.60
2019-05-02T13:45:02.544Z,14.20
2019-05-02T13:47:32.596Z,19.50
2019-05-02T13:50:04.151Z,18.40
2019-05-02T13:52:33.712Z,14.67
2019-05-02T13:55:04.989Z,15.60
2019-05-02T13:57:41.795Z,11.33
2019-05-02T14:00:07.588Z,14.70
2019-05-02T14:02:42.886Z,14.70
2019-05-02T14:05:16.084Z,10.97
2019-05-02T14:07:48.399Z,15.17
2019-05-02T14:10:33.693Z,12.87
2019-05-02T14:13:03.221Z,10.43
2019-05-02T14:15:34.541Z,7.40
2019-05-02T14:18:04.150Z,9.80
2019-05-02T14:20:33.760Z,11.77
2019-05-02T14:23:03.238Z,10.70
2019-05-02T14:25:32.775Z,9.17
2019-05-02T14:28:03.030Z,10.27
2019-05-02T14:30:39.920Z,8.40
2019-05-02T14:33:05.775Z,10.20
2019-05-02T14:35:36.865Z,9.93
2019-05-02T14:38:10.275Z,7.40
2019-05-02T14:40:44.411Z,11.33
2019-05-02T14:43:15.541Z,8.50
2019-05-02T14:45:45.029Z,6.43
2019-05-02T14:48:21.414Z,7.00
2019-05-02T14:50:49.030Z,8.53
2019-05-02T14:53:22.096Z,7.47
2019-05-02T14:55:53.049Z,8.60
2019-05-02T14:58:25.415Z,8.10
2019-05-02T15:00:56.845Z,6.37
2019-05-02T15:03:28.425Z,7.43
2019-05-02T15:05:59.105Z,7.43
2019-05-02T15:08:28.757Z,5.73
2019-05-02T15:10:58.207Z,7.93
2019-05-02T15:13:32.313Z,7.27
2019-05-02T15:15:58.843Z,7.37
2019-05-02T15:18:28.310Z,8.20
2019-05-02T15:20:57.704Z,9.67
2019-05-02T15:23:27.138Z,7.83
2019-05-02T15:25:56.564Z,9.50
2019-05-02T15:28:31.399Z,7.57
2019-05-02T15:31:11.805Z,6.10
2019-05-02T15:34:04.830Z,6.37
2019-05-02T15:36:32.400Z,3.93
2019-05-02T15:41:33.059Z,5.53
2019-05-02T15:44:02.708Z,3.43
2019-05-02T15:46:32.127Z,3.47
2019-05-02T15:49:04.534Z,3.87
2019-05-02T15:51:32.948Z,4.40
2019-05-02T15:54:08.375Z,4.53
2019-05-02T15:56:37.300Z,4.20
2019-05-02T15:59:06.736Z,5.20
2019-05-02T16:01:47.718Z,4.10
2019-05-02T16:04:17.230Z,5.67
2019-05-02T16:06:48.135Z,8.60
2019-05-02T16:09:17.644Z,3.77
2019-05-02T16:11:47.928Z,5.97
2019-05-02T16:14:17.755Z,4.33
2019-05-02T16:16:47.257Z,6.23
2019-05-02T16:19:27.165Z,4.03
2019-05-02T16:21:49.574Z,4.13
2019-05-02T16:24:19.472Z,6.97
2019-05-02T16:26:50.411Z,5.80
2019-05-02T16:29:26.775Z,8.47
2019-05-02T16:31:54.900Z,7.37
2019-05-02T16:34:27.316Z,5.07
2019-05-02T16:37:06.999Z,7.10
2019-05-02T16:39:35.767Z,5.97
2019-05-02T16:42:05.936Z,5.40
2019-05-02T16:44:35.386Z,5.97
2019-05-02T16:47:05.325Z,8.53
2019-05-02T16:49:36.451Z,7.50
2019-05-02T16:52:08.442Z,5.80
2019-05-02T16:54:41.746Z,8.27
2019-05-02T16:57:08.247Z,6.07
2019-05-02T16:59:37.736Z,6.77
2019-05-02T17:02:07.956Z,7.90
2019-05-02T17:04:40.031Z,10.20
2019-05-02T17:07:11.660Z,6.57
2019-05-02T17:10:02.899Z,9.23
2019-05-02T17:12:31.940Z,8.27
2019-05-02T17:15:19.173Z,5.97
2019-05-02T17:17:48.581Z,9.20
2019-05-02T17:20:18.150Z,11.00
2019-05-02T17:22:50.315Z,8.87
2019-05-02T17:25:18.745Z,12.50
2019-05-02T17:27:48.177Z,12.70
2019-05-02T17:30:18.595Z,11.03
2019-05-02T17:32:47.983Z,9.50
2019-05-02T17:35:17.783Z,11.77
2019-05-02T17:37:49.119Z,12.67
2019-05-02T17:40:22.468Z,12.63
2019-05-02T17:42:49.820Z,9.90
2019-05-02T17:45:19.534Z,8.67
2019-05-02T17:47:49.032Z,10.93
2019-05-02T17:50:26.690Z,12.77
2019-05-02T17:53:01.186Z,10.67
2019-05-02T17:55:32.837Z,10.37
2019-05-02T17:58:06.311Z,8.77
2019-05-02T18:00:35.850Z,9.37
2019-05-02T18:03:05.601Z,9.47
2019-05-02T18:05:36.179Z,12.93
2019-05-02T18:08:10.750Z,9.90
2019-05-02T18:10:37.220Z,11.53
2019-05-02T18:13:06.782Z,10.40
2019-05-02T18:15:36.361Z,8.80
2019-05-02T18:18:07.860Z,10.33
2019-05-02T18:20:41.554Z,10.63
2019-05-02T18:23:08.273Z,10.30
2019-05-02T18:25:38.342Z,10.17
2019-05-02T18:28:07.749Z,10.60
2019-05-02T18:30:37.267Z,12.13
2019-05-02T18:33:07.370Z,12.60
2019-05-02T18:35:37.463Z,5.97
2019-05-02T18:38:07.994Z,11.63
2019-05-02T18:40:38.928Z,11.13
2019-05-02T18:43:08.408Z,12.23
2019-05-02T18:45:37.900Z,14.40
2019-05-02T18:48:07.464Z,12.07
2019-05-02T18:50:44.557Z,13.60
2019-05-02T18:53:13.606Z,10.53
2019-05-02T18:55:43.012Z,16.97
2019-05-02T18:58:12.914Z,11.30
2019-05-02T19:00:42.429Z,13.37
2019-05-02T19:03:16.818Z,11.87
2019-05-02T19:05:46.411Z,13.83
2019-05-02T19:08:15.132Z,13.50
2019-05-02T19:11:01.344Z,9.63
2019-05-02T19:13:16.002Z,11.83
2019-05-02T19:15:48.932Z,11.23
2019-05-02T19:18:17.842Z,10.00
2019-05-02T19:20:56.799Z,10.37
2019-05-02T19:23:22.634Z,13.17
2019-05-02T19:25:52.813Z,10.03
2019-05-02T19:28:29.154Z,13.33
2019-05-02T19:31:05.120Z,14.27
2019-05-02T19:33:31.849Z,11.47
2019-05-02T19:36:02.816Z,12.53
2019-05-02T19:38:34.894Z,13.73
2019-05-02T19:41:08.840Z,13.40
2019-05-02T19:43:40.200Z,14.70
2019-05-02T19:46:07.899Z,14.97
2019-05-02T19:48:40.371Z,12.87
2019-05-02T19:51:10.569Z,10.97
2019-05-02T19:53:39.696Z,13.63
2019-05-02T19:56:09.215Z,11.27
2019-05-02T19:58:42.726Z,12.10
2019-05-02T20:01:09.770Z,14.00
2019-05-02T20:03:39.339Z,10.67
2019-05-02T20:06:09.052Z,8.90
2019-05-02T20:08:38.548Z,10.13
2019-05-02T20:11:12.576Z,9.73
2019-05-02T20:13:42.186Z,7.37
2019-05-02T20:16:25.276Z,8.77
2019-05-02T20:18:54.672Z,11.07
2019-05-02T20:21:27.904Z,10.80
2019-05-02T20:23:56.866Z,10.67
2019-05-02T20:26:26.512Z,9.70
2019-05-02T20:28:55.924Z,10.40
2019-05-02T20:31:25.388Z,11.30
2019-05-02T20:33:54.866Z,8.40
2019-05-02T20:36:24.286Z,7.73
2019-05-02T20:38:54.073Z,10.73
2019-05-02T20:41:23.647Z,12.80
2019-05-02T20:43:53.143Z,12.83
2019-05-02T20:46:22.622Z,13.80
2019-05-02T20:48:52.596Z,11.97
2019-05-02T20:51:22.862Z,11.27
2019-05-02T20:53:52.758Z,13.30
2019-05-02T20:56:23.001Z,18.47
2019-05-02T20:58:52.840Z,15.57
2019-05-02T21:01:22.371Z,13.63
2019-05-02T21:03:52.247Z,16.90
2019-05-02T21:06:37.369Z,17.20
2019-05-02T21:08:59.171Z,10.90
2019-05-02T21:11:29.329Z,10.37
2019-05-02T21:13:58.782Z,8.83
2019-05-02T21:16:28.251Z,13.67
2019-05-02T21:18:57.730Z,7.53
2019-05-02T21:21:27.418Z,9.87
2019-05-02T21:23:56.920Z,12.83
2019-05-02T21:26:26.361Z,11.50
2019-05-02T21:28:55.886Z,11.03
2019-05-02T21:31:25.394Z,13.80
2019-05-02T21:33:57.837Z,14.13
2019-05-02T21:36:27.338Z,12.43
2019-05-02T21:38:56.808Z,11.47
2019-05-02T21:41:26.371Z,7.70
2019-05-02T21:43:55.882Z,10.77
2019-05-02T21:46:25.379Z,11.70
2019-05-02T21:48:54.922Z,11.93
2019-05-02T21:51:29.116Z,5.50
2019-05-02T21:54:03.177Z,11.00
2019-05-02T21:56:37.201Z,8.67
2019-05-02T21:59:08.323Z,7.63
2019-05-02T22:01:42.462Z,10.70
2019-05-02T22:04:13.142Z,10.10
2019-05-02T22:06:42.946Z,9.27
2019-05-02T22:09:12.631Z,11.17
2019-05-02T22:11:43.073Z,7.20
2019-05-02T22:14:13.228Z,9.80
2019-05-02T22:16:43.295Z,7.87
2019-05-02T22:19:12.861Z,7.37
2019-05-02T22:21:43.050Z,4.43
2019-05-02T22:24:14.379Z,7.50
2019-05-02T22:26:44.044Z,7.97
2019-05-02T22:29:13.473Z,8.97
2019-05-02T22:31:43.235Z,7.20
2019-05-02T22:34:13.032Z,7.40
2019-05-02T22:36:43.625Z,9.43
2019-05-02T22:39:18.479Z,9.07
2019-05-02T22:41:48.064Z,8.87
2019-05-02T22:44:17.571Z,7.93
2019-05-02T22:46:48.609Z,8.87
2019-05-02T22:49:18.100Z,6.87
2019-05-02T22:51:47.635Z,8.07
2019-05-02T22:54:26.990Z,7.73
2019-05-02T22:56:48.309Z,6.37
2019-05-02T22:59:17.739Z,7.30
2019-05-02T23:01:47.362Z,8.93
2019-05-02T23:04:16.852Z,9.57
2019-05-02T23:06:46.390Z,13.53
2019-05-02T23:09:16.204Z,8.77
2019-05-02T23:11:45.686Z,12.77
2019-05-02T23:14:15.269Z,10.80
2019-05-02T23:16:44.731Z,10.87
2019-05-02T23:19:14.192Z,7.63
2019-05-02T23:21:43.707Z,9.23
2019-05-02T23:24:14.895Z,6.63
2019-05-02T23:26:46.071Z,8.43
2019-05-02T23:29:17.477Z,7.00
2019-05-02T23:31:47.013Z,9.37
2019-05-02T23:34:16.472Z,12.63
2019-05-02T23:36:46.066Z,13.23
2019-05-02T23:39:15.527Z,8.40
2019-05-02T23:41:44.975Z,9.17
2019-05-02T23:44:14.405Z,9.37
2019-05-02T23:46:43.944Z,8.17
2019-05-02T23:49:13.373Z,4.73
2019-05-02T23:51:42.959Z,7.47
2019-05-02T23:54:13.055Z,7.90
2019-05-02T23:56:43.168Z,7.50
2019-05-02T23:59:12.712Z,6.67
